Chester, SD

2:06 PM CST on November 24, 2014 (GMT -0600)
Madison Municipal | Change Station
CLOSE
Current Station
Airport
Location: Madison,
Elevation: 1716 ft
Nearby Weather Stations

Elev 1716 ft 44.01 °N, 97.08 °W | Updated 31 minutes ago

Overcast
Overcast
19 °F
Feels Like 1 °F
N
26
Wind Variable Wind from NNW
Gusts 37 mph

Today
High -- | Low -- °F
--% Chance of Precip.
Yesterday
High -- | Low -- °F
Precip. -- in
7:34 AM 4:54 PM
Waxing Crescent, 7% visible
Pressure 29.74 in
Visibility 10.0 miles
Clouds Overcast 2000 ft
Windchill 1 °F
Dew Point 14 °F
Humidity 80%
Rainfall 0.34 in
Snow Depth Not available.
UV 1 out of 12
Pollen .10 out of 12
Air Quality Not available.
Flu Activity Not available.
METAR KMDS 241935Z AUTO 33023G32KT 10SM -RA OVC020 M07/M10 A2974 RMK AO2

More Conditions Fewer Conditions

Pressure 29.74 in
Visibility 10.0 miles
Clouds Overcast 2000 ft
Windchill 1 °F
Dew Point 14 °F
Humidity 80%
Rainfall 0.34 in
Snow Depth Not available.
UV 1 out of 12
Pollen .10 out of 12
Air Quality Not available.
Flu Activity Not available.
METAR KMDS 241935Z AUTO 33023G32KT 10SM -RA OVC020 M07/M10 A2974 RMK AO2

More Conditions Fewer Conditions

10-Day Weather Forecast

Almanac

Astronomy

Nov. 24, 2014 Rise Set
Actual Time
Civil Twilight
Nautical Twilight
Astronomical Twilight
Moon
Length of Visible Light
Length of Day
Tomorrow will be .
, % of the Moon is Illuminated

Today's Extremes

State Highs State Lows

Community

WunderPhotos

Upload Photos

1,773,401 photos uploaded!

WunderBlogs® & News

Nearby

Air Quality

  Air Quality AQ Index Pollutant
Not available.

Snow Depth

Station Depth Elevation

Earthquake Activity

City Distance Mag. Time & Date
Minimum magnitude displayed is 2.5.

Coastal Water Temperatures

Place Temperature

Nearby Weather Stations